createdAt,value
2023-12-29T00:02:54.864Z,3.21
2023-12-29T00:06:14.859Z,3.21
2023-12-29T00:09:47.608Z,3.15
2023-12-29T00:13:11.810Z,3.15
2023-12-29T00:16:32.860Z,3.14
2023-12-29T00:19:35.967Z,3.13
2023-12-29T00:22:41.637Z,3.16
2023-12-29T00:25:53.104Z,3.06
2023-12-29T00:29:00.544Z,2.99
2023-12-29T00:32:14.076Z,3.12
2023-12-29T00:35:30.236Z,3.22
2023-12-29T00:38:35.670Z,3.29
2023-12-29T00:41:52.109Z,3.36
2023-12-29T00:45:14.524Z,3.20
2023-12-29T00:48:17.974Z,3.28
2023-12-29T00:51:21.580Z,3.35
2023-12-29T00:54:30.146Z,3.34
2023-12-29T00:57:53.621Z,3.35
2023-12-29T01:01:19.696Z,3.29
2023-12-29T01:04:37.010Z,3.28
2023-12-29T01:07:52.855Z,3.25
2023-12-29T01:11:11.985Z,3.14
2023-12-29T01:14:22.056Z,3.05
2023-12-29T01:17:28.830Z,3.12
2023-12-29T01:20:32.458Z,3.11
2023-12-29T01:23:35.889Z,3.16
2023-12-29T01:26:45.496Z,3.01
2023-12-29T01:29:54.059Z,2.95
2023-12-29T01:33:17.602Z,2.95
2023-12-29T01:36:35.019Z,3.13
2023-12-29T01:39:38.282Z,3.09
2023-12-29T01:42:50.120Z,3.15
2023-12-29T01:45:58.238Z,3.13
2023-12-29T01:49:11.723Z,2.97
2023-12-29T01:52:33.528Z,3.06
2023-12-29T01:55:48.302Z,2.96
2023-12-29T01:59:14.947Z,3.02
2023-12-29T02:02:32.645Z,3.10
2023-12-29T02:05:47.856Z,2.96
2023-12-29T02:09:05.675Z,3.06
2023-12-29T02:12:26.434Z,3.07
2023-12-29T02:15:50.647Z,3.14
2023-12-29T02:18:58.718Z,3.12
2023-12-29T02:22:02.631Z,3.19
2023-12-29T02:25:20.305Z,3.00
2023-12-29T02:28:37.573Z,3.15
2023-12-29T02:31:44.947Z,3.20
2023-12-29T02:34:54.859Z,3.16
2023-12-29T02:38:00.203Z,3.18
2023-12-29T02:41:09.989Z,3.21
2023-12-29T02:44:28.870Z,3.14
2023-12-29T02:47:37.901Z,3.20
2023-12-29T02:50:41.760Z,3.21
2023-12-29T02:53:56.309Z,3.26
2023-12-29T02:57:12.385Z,3.19
2023-12-29T03:00:38.218Z,3.28
2023-12-29T03:03:56.176Z,3.23
2023-12-29T03:07:19.360Z,3.13
2023-12-29T03:10:42.275Z,3.24
2023-12-29T03:14:04.675Z,3.12
2023-12-29T03:17:23.306Z,3.05
2023-12-29T03:20:50.411Z,3.15
2023-12-29T03:24:09.254Z,3.15
2023-12-29T03:27:29.500Z,3.00
2023-12-29T03:30:38.336Z,3.10
2023-12-29T03:34:01.398Z,2.94
2023-12-29T03:37:24.307Z,2.91
2023-12-29T03:40:49.278Z,2.93
2023-12-29T03:44:15.612Z,3.10
2023-12-29T03:47:37.379Z,3.03
2023-12-29T03:50:41.722Z,3.12
2023-12-29T03:53:51.204Z,3.06
2023-12-29T03:56:55.440Z,3.07
2023-12-29T03:59:58.274Z,3.05
2023-12-29T04:03:02.212Z,3.11
2023-12-29T04:06:11.351Z,3.04
2023-12-29T04:09:21.914Z,3.08
2023-12-29T04:12:37.023Z,2.99
2023-12-29T04:16:00.284Z,2.94
2023-12-29T04:19:20.787Z,2.87
2023-12-29T04:22:45.235Z,2.91
2023-12-29T04:26:10.304Z,2.57
2023-12-29T04:29:25.122Z,2.44
2023-12-29T04:32:48.124Z,2.56
2023-12-29T04:36:13.128Z,2.64
2023-12-29T04:39:22.596Z,2.57
2023-12-29T04:42:26.815Z,2.65
2023-12-29T04:45:33.705Z,2.72
2023-12-29T04:48:43.532Z,2.51
2023-12-29T04:52:03.160Z,2.58
2023-12-29T04:55:07.927Z,2.64
2023-12-29T04:58:11.401Z,2.42
2023-12-29T05:01:28.135Z,2.70
2023-12-29T05:04:51.185Z,2.77
2023-12-29T05:08:00.934Z,2.52
2023-12-29T05:11:10.522Z,2.31
2023-12-29T05:14:21.410Z,2.53
2023-12-29T05:17:38.635Z,2.58
2023-12-29T05:21:03.223Z,2.80
2023-12-29T05:24:20.142Z,2.72
2023-12-29T05:27:37.506Z,2.76
2023-12-29T05:30:55.337Z,2.69
2023-12-29T05:34:19.958Z,2.78
2023-12-29T05:37:44.975Z,2.81
2023-12-29T05:40:54.846Z,2.76
2023-12-29T05:44:02.379Z,2.69
2023-12-29T05:47:10.981Z,2.75
2023-12-29T05:50:22.405Z,2.60
2023-12-29T05:53:25.651Z,2.42
2023-12-29T05:56:42.360Z,2.70
2023-12-29T05:59:59.979Z,2.80
2023-12-29T06:03:18.274Z,2.84
2023-12-29T06:06:42.079Z,2.81
2023-12-29T06:10:32.705Z,2.70
2023-12-29T06:13:37.425Z,2.82
2023-12-29T06:17:00.154Z,2.81
2023-12-29T06:20:22.218Z,2.72
2023-12-29T06:23:36.508Z,2.87
2023-12-29T06:26:55.941Z,2.56
2023-12-29T06:30:19.201Z,2.46
2023-12-29T06:33:34.884Z,2.39
2023-12-29T06:36:42.259Z,2.59
2023-12-29T06:39:46.457Z,2.51
2023-12-29T06:42:58.476Z,2.47
2023-12-29T06:46:21.868Z,2.78
2023-12-29T06:49:39.583Z,2.86
2023-12-29T06:53:05.879Z,2.84
2023-12-29T06:56:31.779Z,2.76
2023-12-29T07:00:00.492Z,2.73
2023-12-29T07:03:21.729Z,2.89
2023-12-29T07:06:31.650Z,2.99
2023-12-29T07:09:44.428Z,2.92
2023-12-29T07:12:49.368Z,2.97
2023-12-29T07:16:02.414Z,2.96
2023-12-29T07:19:09.947Z,2.89
2023-12-29T07:22:20.767Z,3.06
2023-12-29T07:25:24.196Z,3.12
2023-12-29T07:28:35.708Z,3.08
2023-12-29T07:32:01.669Z,3.01
2023-12-29T07:35:11.928Z,3.08
2023-12-29T07:38:28.736Z,2.62
2023-12-29T07:42:07.810Z,2.57
2023-12-29T07:45:26.170Z,2.31
2023-12-29T07:48:43.420Z,2.50
2023-12-29T07:52:08.738Z,2.40
2023-12-29T07:55:32.576Z,2.30
2023-12-29T07:58:44.830Z,2.58
2023-12-29T08:02:08.540Z,2.99
2023-12-29T08:05:26.416Z,3.29
2023-12-29T08:08:29.801Z,3.48
2023-12-29T08:11:33.318Z,3.43
2023-12-29T08:14:52.677Z,3.57
2023-12-29T08:18:22.544Z,3.62
2023-12-29T08:21:39.363Z,3.61
2023-12-29T08:25:02.630Z,3.69
2023-12-29T08:28:27.602Z,3.64
2023-12-29T08:31:42.302Z,3.62
2023-12-29T08:34:48.821Z,3.74
2023-12-29T08:38:02.860Z,3.61
2023-12-29T08:41:23.619Z,3.90
2023-12-29T08:44:44.707Z,3.88
2023-12-29T08:48:05.544Z,4.10
2023-12-29T08:51:10.096Z,4.20
2023-12-29T08:54:20.975Z,4.06
2023-12-29T08:57:25.473Z,3.77
2023-12-29T09:00:33.219Z,3.81
2023-12-29T09:03:40.439Z,4.28
2023-12-29T09:06:57.548Z,4.68
2023-12-29T09:10:19.560Z,4.76
2023-12-29T09:13:27.729Z,4.88
2023-12-29T09:16:31.727Z,4.87
2023-12-29T09:20:04.345Z,4.30
2023-12-29T09:23:21.378Z,4.37
2023-12-29T09:26:37.591Z,4.73
2023-12-29T09:29:58.277Z,4.87
2023-12-29T09:33:08.440Z,4.65
2023-12-29T09:36:35.380Z,4.32
2023-12-29T09:39:55.551Z,4.81
2023-12-29T09:43:13.304Z,5.12
2023-12-29T09:46:50.289Z,5.16
2023-12-29T09:50:11.381Z,5.12
2023-12-29T09:53:34.290Z,5.06
2023-12-29T09:56:39.471Z,5.04
2023-12-29T09:59:54.067Z,5.01
2023-12-29T10:03:05.245Z,5.12
2023-12-29T10:06:22.916Z,5.20
2023-12-29T10:09:36.052Z,5.27
2023-12-29T10:12:56.712Z,5.24
2023-12-29T10:16:50.245Z,5.22
2023-12-29T10:20:31.331Z,5.31
2023-12-29T10:23:55.295Z,5.40
2023-12-29T10:27:15.301Z,5.40
2023-12-29T10:30:37.462Z,5.59
2023-12-29T10:33:58.281Z,5.61
2023-12-29T10:37:21.347Z,5.74
2023-12-29T10:40:41.105Z,5.81
2023-12-29T10:44:00.207Z,5.81
2023-12-29T10:47:16.400Z,5.89
2023-12-29T10:50:40.218Z,5.89
2023-12-29T10:54:00.225Z,5.93
2023-12-29T10:57:28.281Z,5.93
2023-12-29T11:00:45.273Z,6.05
2023-12-29T11:04:07.387Z,6.00
2023-12-29T11:07:27.111Z,5.81
2023-12-29T11:10:50.269Z,5.93
2023-12-29T11:14:08.101Z,5.85
2023-12-29T11:17:13.766Z,5.79
2023-12-29T11:20:21.762Z,5.66
2023-12-29T11:27:18.049Z,5.36
2023-12-29T11:30:28.963Z,4.88
2023-12-29T11:33:46.063Z,5.30
2023-12-29T11:37:14.780Z,5.15
2023-12-29T11:41:18.321Z,5.37
2023-12-29T11:44:29.372Z,5.72
2023-12-29T11:47:45.493Z,5.92
2023-12-29T11:50:50.127Z,5.98
2023-12-29T11:53:56.960Z,6.17
2023-12-29T11:57:04.518Z,6.51
2023-12-29T12:00:19.214Z,6.75
2023-12-29T12:03:42.089Z,6.59
2023-12-29T12:07:04.999Z,6.66
2023-12-29T12:10:39.986Z,7.10
2023-12-29T12:13:50.468Z,7.33
2023-12-29T12:17:12.085Z,7.56
2023-12-29T12:20:29.906Z,7.79
2023-12-29T12:23:49.023Z,7.82
2023-12-29T12:27:18.128Z,8.38
2023-12-29T12:30:22.324Z,8.35
2023-12-29T12:33:29.727Z,8.27
2023-12-29T12:36:50.795Z,8.70
2023-12-29T12:39:55.696Z,8.14
2023-12-29T12:43:19.644Z,8.27
2023-12-29T12:46:47.912Z,8.08
2023-12-29T12:50:02.942Z,8.12
2023-12-29T12:53:22.399Z,8.02
2023-12-29T12:56:45.996Z,7.99
2023-12-29T13:00:04.129Z,7.96
2023-12-29T13:03:24.837Z,7.97
2023-12-29T13:06:40.425Z,7.66
2023-12-29T13:09:52.126Z,7.53
2023-12-29T13:13:02.348Z,7.83
2023-12-29T13:16:09.728Z,7.93
2023-12-29T13:19:21.169Z,7.90
2023-12-29T13:22:34.636Z,7.97
2023-12-29T13:25:41.624Z,7.90
2023-12-29T13:28:49.089Z,7.83
2023-12-29T13:32:38.861Z,7.45
2023-12-29T13:36:07.866Z,7.42
2023-12-29T13:39:49.138Z,7.43
2023-12-29T13:43:03.583Z,7.49
2023-12-29T13:46:13.042Z,7.37
2023-12-29T13:49:27.141Z,7.36
2023-12-29T13:52:31.267Z,7.37
2023-12-29T13:55:44.641Z,7.38
2023-12-29T13:59:10.635Z,7.32
2023-12-29T14:02:32.919Z,7.54
2023-12-29T14:05:53.220Z,7.55
2023-12-29T14:09:07.904Z,7.39
2023-12-29T14:12:32.509Z,7.31
2023-12-29T14:15:54.542Z,7.30
2023-12-29T14:19:18.643Z,7.29
2023-12-29T14:22:32.692Z,7.30
2023-12-29T14:25:56.655Z,7.25
2023-12-29T14:29:12.855Z,7.41
2023-12-29T14:32:19.225Z,7.36
2023-12-29T14:35:33.654Z,7.27
2023-12-29T14:38:37.870Z,7.13
2023-12-29T14:42:01.504Z,7.13
2023-12-29T14:45:23.702Z,7.15
2023-12-29T14:48:41.187Z,7.10
2023-12-29T14:51:58.457Z,6.90
2023-12-29T14:55:27.092Z,6.75
2023-12-29T14:58:50.060Z,6.87
2023-12-29T15:02:09.216Z,6.81
2023-12-29T15:05:12.413Z,6.79
2023-12-29T15:08:16.809Z,6.71
2023-12-29T15:11:27.097Z,6.64
2023-12-29T15:14:54.455Z,6.47
2023-12-29T15:18:16.080Z,6.32
2023-12-29T15:21:19.590Z,6.21
2023-12-29T15:24:35.670Z,6.16
2023-12-29T15:27:59.475Z,6.15
2023-12-29T15:31:17.775Z,6.05
2023-12-29T15:34:22.670Z,5.90
2023-12-29T15:37:30.547Z,5.95
2023-12-29T15:40:33.846Z,5.87
2023-12-29T15:43:38.213Z,5.85
2023-12-29T15:46:54.064Z,5.66
2023-12-29T15:49:57.676Z,5.68
2023-12-29T15:53:17.471Z,5.84
2023-12-29T15:56:57.333Z,5.86
2023-12-29T16:00:26.200Z,5.84
2023-12-29T16:03:45.286Z,5.88
2023-12-29T16:07:09.233Z,6.05
2023-12-29T16:10:32.608Z,5.91
2023-12-29T16:13:54.143Z,5.90
2023-12-29T16:17:04.249Z,5.87
2023-12-29T16:20:07.912Z,5.96
2023-12-29T16:23:12.797Z,5.93
2023-12-29T16:26:42.865Z,5.64
2023-12-29T16:29:57.126Z,5.59
2023-12-29T16:33:20.502Z,5.70
2023-12-29T16:36:31.393Z,5.66
2023-12-29T16:39:48.679Z,5.54
2023-12-29T16:42:57.058Z,5.51
2023-12-29T16:46:00.831Z,5.49
2023-12-29T16:49:15.481Z,5.63
2023-12-29T16:52:31.323Z,5.61
2023-12-29T16:56:01.394Z,5.49
2023-12-29T16:59:23.439Z,5.38
2023-12-29T17:02:42.663Z,5.45
2023-12-29T17:06:01.438Z,5.49
2023-12-29T17:09:28.237Z,5.44
2023-12-29T17:12:49.257Z,5.32
2023-12-29T17:16:06.539Z,5.21
2023-12-29T17:19:26.439Z,5.21
2023-12-29T17:22:52.041Z,5.19
2023-12-29T17:26:15.734Z,5.20
2023-12-29T17:29:38.694Z,5.19
2023-12-29T17:33:01.623Z,5.23
2023-12-29T17:36:16.657Z,5.24
2023-12-29T17:39:42.187Z,5.18
2023-12-29T17:43:05.214Z,5.19
2023-12-29T17:46:15.495Z,5.21
2023-12-29T17:49:35.277Z,5.15
2023-12-29T17:53:01.423Z,5.08
2023-12-29T17:56:09.015Z,5.20
2023-12-29T17:59:16.622Z,5.07
2023-12-29T18:02:37.834Z,5.08
2023-12-29T18:05:59.802Z,5.06
2023-12-29T18:09:14.742Z,5.03
2023-12-29T18:12:38.080Z,4.96
2023-12-29T18:16:08.077Z,4.91
2023-12-29T18:19:27.804Z,4.83
2023-12-29T18:22:35.533Z,4.76
2023-12-29T18:25:44.936Z,4.73
2023-12-29T18:28:48.396Z,4.65
2023-12-29T18:32:17.832Z,4.62
2023-12-29T18:35:17.064Z,4.62
2023-12-29T18:38:35.884Z,4.69
2023-12-29T18:41:52.237Z,4.70
2023-12-29T18:45:09.063Z,4.62
2023-12-29T18:48:38.600Z,4.63
2023-12-29T18:52:00.038Z,4.68
2023-12-29T18:55:17.505Z,4.69
2023-12-29T18:58:40.940Z,4.69
2023-12-29T19:02:01.277Z,4.73
2023-12-29T19:05:20.847Z,4.73
2023-12-29T19:08:37.258Z,4.77
2023-12-29T19:12:05.946Z,4.69
2023-12-29T19:15:30.285Z,4.64
2023-12-29T19:18:36.836Z,4.51
2023-12-29T19:21:44.286Z,4.59
2023-12-29T19:24:50.011Z,4.62
2023-12-29T19:28:14.099Z,4.60
2023-12-29T19:31:18.955Z,4.51
2023-12-29T19:34:22.099Z,4.49
2023-12-29T19:37:27.161Z,4.58
2023-12-29T19:40:37.938Z,4.60
2023-12-29T19:43:48.312Z,4.60
2023-12-29T19:46:52.445Z,4.52
2023-12-29T19:49:59.636Z,4.48
2023-12-29T19:53:15.897Z,4.48
2023-12-29T19:56:33.924Z,4.35
2023-12-29T19:59:54.278Z,4.45
2023-12-29T20:03:11.805Z,4.44
2023-12-29T20:06:31.113Z,4.28
2023-12-29T20:09:51.967Z,4.26
2023-12-29T20:13:15.713Z,4.22
2023-12-29T20:16:24.732Z,4.28
2023-12-29T20:19:29.185Z,4.25
2023-12-29T20:22:52.445Z,4.26
2023-12-29T20:26:02.886Z,4.28
2023-12-29T20:29:10.108Z,4.19
2023-12-29T20:32:21.083Z,4.16
2023-12-29T20:35:32.410Z,4.09
2023-12-29T20:38:39.580Z,4.03
2023-12-29T20:41:46.305Z,3.95
2023-12-29T20:44:58.181Z,3.88
2023-12-29T20:48:15.762Z,3.73
2023-12-29T20:51:28.058Z,3.71
2023-12-29T20:54:51.744Z,3.58
2023-12-29T20:58:14.590Z,3.56
2023-12-29T21:01:36.753Z,3.54
2023-12-29T21:04:40.500Z,3.40
2023-12-29T21:08:03.663Z,3.46
2023-12-29T21:11:41.685Z,3.46
2023-12-29T21:15:07.631Z,3.28
2023-12-29T21:18:23.823Z,3.15
2023-12-29T21:21:53.523Z,3.09
2023-12-29T21:25:10.656Z,2.92
2023-12-29T21:28:14.038Z,2.99
2023-12-29T21:31:21.913Z,2.92
2023-12-29T21:34:29.630Z,2.95
2023-12-29T21:37:50.313Z,2.95
2023-12-29T21:41:12.203Z,2.88
2023-12-29T21:44:36.911Z,2.73
2023-12-29T21:47:55.441Z,2.83
2023-12-29T21:51:12.708Z,2.98
2023-12-29T21:54:34.451Z,3.06
2023-12-29T21:58:03.177Z,3.09
2023-12-29T22:01:51.141Z,3.12
2023-12-29T22:05:12.955Z,2.95
2023-12-29T22:08:20.737Z,3.12
2023-12-29T22:11:31.223Z,3.15
2023-12-29T22:14:41.164Z,3.08
2023-12-29T22:18:07.462Z,2.86
2023-12-29T22:21:19.605Z,3.05
2023-12-29T22:24:29.102Z,3.15
2023-12-29T22:27:34.140Z,3.14
2023-12-29T22:30:58.327Z,3.08
2023-12-29T22:34:26.235Z,3.01
2023-12-29T22:37:42.467Z,3.07
2023-12-29T22:41:08.510Z,2.99
2023-12-29T22:44:30.293Z,3.02
2023-12-29T22:47:53.371Z,2.96
2023-12-29T22:51:19.318Z,2.86
2023-12-29T22:54:22.551Z,2.91
2023-12-29T22:57:46.443Z,2.96
2023-12-29T23:01:21.317Z,2.93
2023-12-29T23:04:43.175Z,3.03
2023-12-29T23:08:00.377Z,3.00
2023-12-29T23:11:21.408Z,2.97
2023-12-29T23:14:50.239Z,2.60
2023-12-29T23:18:16.156Z,2.86
2023-12-29T23:21:19.898Z,2.88
2023-12-29T23:24:30.082Z,2.76
2023-12-29T23:27:46.478Z,2.86
2023-12-29T23:31:24.342Z,2.91
2023-12-29T23:35:14.055Z,2.80
2023-12-29T23:38:28.065Z,2.83
2023-12-29T23:41:48.358Z,2.76
2023-12-29T23:45:11.447Z,2.78
2023-12-29T23:48:28.886Z,2.71
2023-12-29T23:51:52.248Z,2.55
2023-12-29T23:55:09.378Z,2.65
2023-12-29T23:58:29.282Z,2.68
